^^
Meteo Knjazevac Station Historical Data
 
Daily Summary for December 10, 2019 Units:  Metric    English   Both
Daily Weekly Monthly Yearly Custom
  Current: High: Low: Average:
Temperature: -0.7 °C 1.1 °C -0.7 °C 0.2 °C
Dew Point: -1 °C 0.4 °C -1.2 °C -0.3 °C
Humidity: 98% 98% 94% 96%
Wind Speed: 3.2km/h 8km/h 0km/h 2.4km/h
Wind Gust: 6.4km/h 16.1km/h - -
WindWNW - - SW
Pressure: 1009.7 hPa 1010.4 hPa 1009.7 hPa -
Precipitation: 0 mm      
Historical Graphs
 
 
Tabular Data for December 10, 2019
Time Temperature Dew Point Pressure Wind Wind Speed Wind Gust Humidity Rainfall Rate (Hourly) solar Conditions
00:00 1.1 °C 0.4 °C 1009.7 hPa Calm   6.4 km/h 95% 0 mm 0 W/m2
00:10 0.9 °C 0 °C 1009.7 hPa West 3.2 km/h 6.4 km/h 94% 0 mm 0 W/m2
00:20 0.5 °C -0.3 °C 1009.7 hPa West 8 km/h 11.3 km/h 94% 0 mm 0 W/m2
00:30 0.6 °C 0.1 °C 1009.7 hPa West 4.8 km/h 9.7 km/h 96% 0 mm 0 W/m2
00:40 0.6 °C 0.1 °C 1009.7 hPa West 4.8 km/h 8 km/h 96% 0 mm 0 W/m2
00:50 0.6 °C 0.1 °C 1009.7 hPa West 4.8 km/h 9.7 km/h 96% 0 mm 0 W/m2
01:00 0.7 °C 0.4 °C 1009.7 hPa NW 1.6 km/h 9.7 km/h 98% 0 mm 0 W/m2
01:10 0.7 °C 0.1 °C 1010 hPa NNE 4.8 km/h 9.7 km/h 96% 0 mm 0 W/m2
01:20 0.7 °C 0.4 °C 1010 hPa NNE 8 km/h 16.1 km/h 98% 0 mm 0 W/m2
01:30 0.5 °C -0.1 °C 1010 hPa Calm   12.9 km/h 96% 0 mm 0 W/m2
01:40 0.2 °C -0.5 °C 1010 hPa Calm   9.7 km/h 95% 0 mm 0 W/m2
01:50 0 °C -0.7 °C 1010 hPa Calm   3.2 km/h 95% 0 mm 0 W/m2
02:00 -0.1 °C -0.8 °C 1010 hPa Calm   3.2 km/h 95% 0 mm 0 W/m2
02:10 -0.2 °C -0.8 °C 1010.4 hPa West 1.6 km/h 3.2 km/h 96% 0 mm 0 W/m2
02:20 -0.3 °C -0.8 °C 1010 hPa Calm   4.8 km/h 96% 0 mm 0 W/m2
02:30 -0.2 °C -0.5 °C 1010.4 hPa Calm   4.8 km/h 98% 0 mm 0 W/m2
02:40 -0.2 °C -0.5 °C 1010 hPa Calm   3.2 km/h 98% 0 mm 0 W/m2
02:50 -0.4 °C -0.7 °C 1010 hPa Calm   4.8 km/h 98% 0 mm 0 W/m2
03:00 -0.6 °C -1.2 °C 1010 hPa West 3.2 km/h 4.8 km/h 96% 0 mm 0 W/m2
03:10 -0.7 °C -1 °C 1009.7 hPa WNW 3.2 km/h 6.4 km/h 98% 0 mm 0 W/m2
Knjazevac, Serbia
Compliments of Weather Underground - 2 mb